sensor_id;sensor_type;location;lat;lon;timestamp;temperature;humidity
39675;DHT22;27790;50.840;4.386;2023-04-30T00:02:19;12.20;98.60
39675;DHT22;27790;50.840;4.386;2023-04-30T00:04:45;12.10;98.50
39675;DHT22;27790;50.840;4.386;2023-04-30T00:07:10;12.10;98.60
39675;DHT22;27790;50.840;4.386;2023-04-30T00:09:36;12.10;98.50
39675;DHT22;27790;50.840;4.386;2023-04-30T00:12:02;12.20;98.40
39675;DHT22;27790;50.840;4.386;2023-04-30T00:14:27;12.10;98.20
39675;DHT22;27790;50.840;4.386;2023-04-30T00:16:53;12.10;98.30
39675;DHT22;27790;50.840;4.386;2023-04-30T00:19:19;12.10;98.30
39675;DHT22;27790;50.840;4.386;2023-04-30T00:21:44;12.10;98.10
39675;DHT22;27790;50.840;4.386;2023-04-30T00:24:10;12.00;98.10
39675;DHT22;27790;50.840;4.386;2023-04-30T00:26:35;11.90;98.00
39675;DHT22;27790;50.840;4.386;2023-04-30T00:29:01;11.90;98.00
39675;DHT22;27790;50.840;4.386;2023-04-30T00:31:27;11.80;98.00
39675;DHT22;27790;50.840;4.386;2023-04-30T00:33:52;11.70;98.00
39675;DHT22;27790;50.840;4.386;2023-04-30T00:36:18;11.70;97.90
39675;DHT22;27790;50.840;4.386;2023-04-30T00:38:44;11.50;98.00
39675;DHT22;27790;50.840;4.386;2023-04-30T00:41:09;11.50;98.00
39675;DHT22;27790;50.840;4.386;2023-04-30T00:43:35;11.50;98.00
39675;DHT22;27790;50.840;4.386;2023-04-30T00:46:00;11.50;98.10
39675;DHT22;27790;50.840;4.386;2023-04-30T00:48:28;11.50;98.10
39675;DHT22;27790;50.840;4.386;2023-04-30T00:50:53;11.40;97.90
39675;DHT22;27790;50.840;4.386;2023-04-30T00:53:19;11.40;97.80
39675;DHT22;27790;50.840;4.386;2023-04-30T00:55:45;11.40;97.90
39675;DHT22;27790;50.840;4.386;2023-04-30T00:58:12;11.40;97.80
39675;DHT22;27790;50.840;4.386;2023-04-30T01:00:38;11.50;97.80
39675;DHT22;27790;50.840;4.386;2023-04-30T01:03:07;11.50;97.70
39675;DHT22;27790;50.840;4.386;2023-04-30T01:05:33;11.40;97.70
39675;DHT22;27790;50.840;4.386;2023-04-30T01:07:58;11.40;97.80
39675;DHT22;27790;50.840;4.386;2023-04-30T01:10:29;11.30;97.80
39675;DHT22;27790;50.840;4.386;2023-04-30T01:12:59;11.20;97.80
39675;DHT22;27790;50.840;4.386;2023-04-30T01:18:24;11.30;97.80
39675;DHT22;27790;50.840;4.386;2023-04-30T01:20:55;11.30;97.80
39675;DHT22;27790;50.840;4.386;2023-04-30T01:28:39;11.20;97.90
39675;DHT22;27790;50.840;4.386;2023-04-30T01:31:13;11.20;98.00
39675;DHT22;27790;50.840;4.386;2023-04-30T01:33:39;11.20;98.00
39675;DHT22;27790;50.840;4.386;2023-04-30T01:42:27;11.20;98.10
39675;DHT22;27790;50.840;4.386;2023-04-30T01:47:47;11.20;98.30
39675;DHT22;27790;50.840;4.386;2023-04-30T01:52:58;11.20;98.40
39675;DHT22;27790;50.840;4.386;2023-04-30T01:55:33;11.20;98.60
39675;DHT22;27790;50.840;4.386;2023-04-30T01:58:02;11.20;98.80
39675;DHT22;27790;50.840;4.386;2023-04-30T02:00:29;11.10;99.00
39675;DHT22;27790;50.840;4.386;2023-04-30T02:02:55;11.10;99.00
39675;DHT22;27790;50.840;4.386;2023-04-30T02:05:21;11.10;99.10
39675;DHT22;27790;50.840;4.386;2023-04-30T02:07:48;11.10;98.80
39675;DHT22;27790;50.840;4.386;2023-04-30T02:10:15;11.20;98.80
39675;DHT22;27790;50.840;4.386;2023-04-30T02:12:41;11.20;98.80
39675;DHT22;27790;50.840;4.386;2023-04-30T02:15:07;11.20;98.90
39675;DHT22;27790;50.840;4.386;2023-04-30T02:17:33;11.10;99.00
39675;DHT22;27790;50.840;4.386;2023-04-30T02:19:59;11.20;99.00
39675;DHT22;27790;50.840;4.386;2023-04-30T02:22:25;11.20;99.00
39675;DHT22;27790;50.840;4.386;2023-04-30T02:24:50;11.10;98.90
39675;DHT22;27790;50.840;4.386;2023-04-30T02:27:20;11.20;98.90
39675;DHT22;27790;50.840;4.386;2023-04-30T02:29:46;11.10;98.90
39675;DHT22;27790;50.840;4.386;2023-04-30T02:32:11;11.10;99.10
39675;DHT22;27790;50.840;4.386;2023-04-30T02:34:37;11.10;99.10
39675;DHT22;27790;50.840;4.386;2023-04-30T02:37:03;11.00;99.10
39675;DHT22;27790;50.840;4.386;2023-04-30T02:39:28;11.10;99.40
39675;DHT22;27790;50.840;4.386;2023-04-30T02:41:54;11.00;99.60
39675;DHT22;27790;50.840;4.386;2023-04-30T02:44:19;11.00;99.30
39675;DHT22;27790;50.840;4.386;2023-04-30T02:46:46;11.00;99.60
39675;DHT22;27790;50.840;4.386;2023-04-30T02:49:12;11.00;99.50
39675;DHT22;27790;50.840;4.386;2023-04-30T02:51:37;10.90;99.40
39675;DHT22;27790;50.840;4.386;2023-04-30T02:54:03;11.00;99.50
39675;DHT22;27790;50.840;4.386;2023-04-30T02:56:28;10.90;99.50
39675;DHT22;27790;50.840;4.386;2023-04-30T02:58:54;10.90;99.60
39675;DHT22;27790;50.840;4.386;2023-04-30T03:01:20;10.90;99.50
39675;DHT22;27790;50.840;4.386;2023-04-30T03:03:46;10.80;99.40
39675;DHT22;27790;50.840;4.386;2023-04-30T03:06:11;10.80;99.60
39675;DHT22;27790;50.840;4.386;2023-04-30T03:08:37;10.80;99.70
39675;DHT22;27790;50.840;4.386;2023-04-30T03:11:02;10.80;99.60
39675;DHT22;27790;50.840;4.386;2023-04-30T03:13:28;10.70;99.50
39675;DHT22;27790;50.840;4.386;2023-04-30T03:16:00;10.70;99.30
39675;DHT22;27790;50.840;4.386;2023-04-30T03:18:27;10.60;99.10
39675;DHT22;27790;50.840;4.386;2023-04-30T03:20:53;10.60;99.30
39675;DHT22;27790;50.840;4.386;2023-04-30T03:23:18;10.60;99.50
39675;DHT22;27790;50.840;4.386;2023-04-30T03:25:44;10.60;99.70
39675;DHT22;27790;50.840;4.386;2023-04-30T03:28:10;10.60;99.70
39675;DHT22;27790;50.840;4.386;2023-04-30T03:30:35;10.60;99.70
39675;DHT22;27790;50.840;4.386;2023-04-30T03:33:01;10.50;99.40
39675;DHT22;27790;50.840;4.386;2023-04-30T03:35:27;10.50;99.50
39675;DHT22;27790;50.840;4.386;2023-04-30T03:37:52;10.50;99.60
39675;DHT22;27790;50.840;4.386;2023-04-30T03:40:18;10.50;99.60
39675;DHT22;27790;50.840;4.386;2023-04-30T03:42:43;10.40;99.70
39675;DHT22;27790;50.840;4.386;2023-04-30T03:45:09;10.40;99.80
39675;DHT22;27790;50.840;4.386;2023-04-30T03:47:35;10.40;99.90
39675;DHT22;27790;50.840;4.386;2023-04-30T03:50:02;10.40;99.90
39675;DHT22;27790;50.840;4.386;2023-04-30T03:52:28;10.30;99.90
39675;DHT22;27790;50.840;4.386;2023-04-30T03:54:54;10.30;99.90
39675;DHT22;27790;50.840;4.386;2023-04-30T03:57:20;10.30;99.90
39675;DHT22;27790;50.840;4.386;2023-04-30T03:59:46;10.30;99.90
39675;DHT22;27790;50.840;4.386;2023-04-30T04:02:12;10.30;99.90
39675;DHT22;27790;50.840;4.386;2023-04-30T04:04:38;10.30;99.90
39675;DHT22;27790;50.840;4.386;2023-04-30T04:07:03;10.30;99.90
39675;DHT22;27790;50.840;4.386;2023-04-30T04:09:32;10.20;99.90
39675;DHT22;27790;50.840;4.386;2023-04-30T04:11:57;10.20;99.90
39675;DHT22;27790;50.840;4.386;2023-04-30T04:14:23;10.20;99.90
39675;DHT22;27790;50.840;4.386;2023-04-30T04:16:49;10.20;99.90
39675;DHT22;27790;50.840;4.386;2023-04-30T04:19:14;10.20;99.90
39675;DHT22;27790;50.840;4.386;2023-04-30T04:21:40;10.30;99.90
39675;DHT22;27790;50.840;4.386;2023-04-30T04:24:06;10.30;99.90
39675;DHT22;27790;50.840;4.386;2023-04-30T04:26:34;10.30;99.90
39675;DHT22;27790;50.840;4.386;2023-04-30T04:29:01;10.30;99.90
39675;DHT22;27790;50.840;4.386;2023-04-30T04:31:27;10.30;99.90
39675;DHT22;27790;50.840;4.386;2023-04-30T04:33:53;10.30;99.90
39675;DHT22;27790;50.840;4.386;2023-04-30T04:36:23;10.30;99.90
39675;DHT22;27790;50.840;4.386;2023-04-30T04:38:51;10.30;99.90
39675;DHT22;27790;50.840;4.386;2023-04-30T04:41:17;10.30;99.90
39675;DHT22;27790;50.840;4.386;2023-04-30T04:43:43;10.30;99.90
39675;DHT22;27790;50.840;4.386;2023-04-30T04:46:08;10.30;99.90
39675;DHT22;27790;50.840;4.386;2023-04-30T04:48:34;10.30;99.90
39675;DHT22;27790;50.840;4.386;2023-04-30T04:51:00;10.30;99.90
39675;DHT22;27790;50.840;4.386;2023-04-30T04:53:25;10.40;99.90
39675;DHT22;27790;50.840;4.386;2023-04-30T04:55:51;10.40;99.90
39675;DHT22;27790;50.840;4.386;2023-04-30T04:58:17;10.40;99.90
39675;DHT22;27790;50.840;4.386;2023-04-30T05:00:43;10.40;99.90
39675;DHT22;27790;50.840;4.386;2023-04-30T05:03:09;10.50;99.90
39675;DHT22;27790;50.840;4.386;2023-04-30T05:05:35;10.50;99.90
39675;DHT22;27790;50.840;4.386;2023-04-30T05:08:01;10.60;99.90
39675;DHT22;27790;50.840;4.386;2023-04-30T05:10:26;10.90;99.90
39675;DHT22;27790;50.840;4.386;2023-04-30T05:12:52;11.30;99.90
39675;DHT22;27790;50.840;4.386;2023-04-30T05:15:17;11.70;99.50
39675;DHT22;27790;50.840;4.386;2023-04-30T05:17:43;12.10;98.80
39675;DHT22;27790;50.840;4.386;2023-04-30T05:20:10;12.40;98.20
39675;DHT22;27790;50.840;4.386;2023-04-30T05:22:36;12.60;97.70
39675;DHT22;27790;50.840;4.386;2023-04-30T05:25:01;12.70;97.40
39675;DHT22;27790;50.840;4.386;2023-04-30T05:27:27;12.80;97.30
39675;DHT22;27790;50.840;4.386;2023-04-30T05:29:52;12.90;97.10
39675;DHT22;27790;50.840;4.386;2023-04-30T05:32:18;13.10;96.90
39675;DHT22;27790;50.840;4.386;2023-04-30T05:34:43;13.20;96.60
39675;DHT22;27790;50.840;4.386;2023-04-30T05:37:09;13.40;96.50
39675;DHT22;27790;50.840;4.386;2023-04-30T05:39:35;13.70;96.20
39675;DHT22;27790;50.840;4.386;2023-04-30T05:42:00;13.90;96.10
39675;DHT22;27790;50.840;4.386;2023-04-30T05:44:26;13.90;95.70
39675;DHT22;27790;50.840;4.386;2023-04-30T05:46:55;13.90;95.80
39675;DHT22;27790;50.840;4.386;2023-04-30T05:49:20;14.00;95.80
39675;DHT22;27790;50.840;4.386;2023-04-30T05:51:46;14.00;95.60
39675;DHT22;27790;50.840;4.386;2023-04-30T05:54:11;13.90;95.60
39675;DHT22;27790;50.840;4.386;2023-04-30T05:56:37;13.90;95.80
39675;DHT22;27790;50.840;4.386;2023-04-30T05:59:02;13.90;95.90
39675;DHT22;27790;50.840;4.386;2023-04-30T06:01:28;14.00;95.60
39675;DHT22;27790;50.840;4.386;2023-04-30T06:03:54;14.10;95.60
39675;DHT22;27790;50.840;4.386;2023-04-30T06:06:19;14.20;95.40
39675;DHT22;27790;50.840;4.386;2023-04-30T06:08:45;14.20;95.40
39675;DHT22;27790;50.840;4.386;2023-04-30T06:11:11;14.10;95.30
39675;DHT22;27790;50.840;4.386;2023-04-30T06:13:38;14.20;95.60
39675;DHT22;27790;50.840;4.386;2023-04-30T06:16:05;14.10;95.60
39675;DHT22;27790;50.840;4.386;2023-04-30T06:18:30;14.00;95.80
39675;DHT22;27790;50.840;4.386;2023-04-30T06:20:56;14.00;95.80
39675;DHT22;27790;50.840;4.386;2023-04-30T06:23:22;14.00;95.90
39675;DHT22;27790;50.840;4.386;2023-04-30T06:25:47;13.90;95.80
39675;DHT22;27790;50.840;4.386;2023-04-30T06:28:13;13.70;95.80
39675;DHT22;27790;50.840;4.386;2023-04-30T06:30:39;13.60;96.20
39675;DHT22;27790;50.840;4.386;2023-04-30T06:33:05;13.70;96.50
39675;DHT22;27790;50.840;4.386;2023-04-30T06:35:31;13.80;96.20
39675;DHT22;27790;50.840;4.386;2023-04-30T06:37:56;14.00;96.20
39675;DHT22;27790;50.840;4.386;2023-04-30T06:40:22;14.10;96.00
39675;DHT22;27790;50.840;4.386;2023-04-30T06:42:48;14.10;96.10
39675;DHT22;27790;50.840;4.386;2023-04-30T06:45:14;14.20;96.20
39675;DHT22;27790;50.840;4.386;2023-04-30T06:47:40;14.10;96.10
39675;DHT22;27790;50.840;4.386;2023-04-30T06:50:07;14.10;96.20
39675;DHT22;27790;50.840;4.386;2023-04-30T06:52:33;14.40;95.80
39675;DHT22;27790;50.840;4.386;2023-04-30T06:55:01;14.70;95.60
39675;DHT22;27790;50.840;4.386;2023-04-30T06:57:26;15.00;95.20
39675;DHT22;27790;50.840;4.386;2023-04-30T06:59:53;15.30;94.80
39675;DHT22;27790;50.840;4.386;2023-04-30T07:02:18;15.70;94.50
39675;DHT22;27790;50.840;4.386;2023-04-30T07:04:44;16.20;93.90
39675;DHT22;27790;50.840;4.386;2023-04-30T07:07:09;16.80;93.40
39675;DHT22;27790;50.840;4.386;2023-04-30T07:09:35;17.10;92.80
39675;DHT22;27790;50.840;4.386;2023-04-30T07:12:02;17.20;92.10
39675;DHT22;27790;50.840;4.386;2023-04-30T07:14:28;17.20;92.20
39675;DHT22;27790;50.840;4.386;2023-04-30T07:16:53;17.40;92.40
39675;DHT22;27790;50.840;4.386;2023-04-30T07:19:19;17.60;91.90
39675;DHT22;27790;50.840;4.386;2023-04-30T07:21:45;18.00;91.30
39675;DHT22;27790;50.840;4.386;2023-04-30T07:24:10;18.20;91.00
39675;DHT22;27790;50.840;4.386;2023-04-30T07:26:36;18.20;90.80
39675;DHT22;27790;50.840;4.386;2023-04-30T07:29:03;18.50;90.70
39675;DHT22;27790;50.840;4.386;2023-04-30T07:31:28;18.70;90.20
39675;DHT22;27790;50.840;4.386;2023-04-30T07:33:54;18.70;90.30
39675;DHT22;27790;50.840;4.386;2023-04-30T07:36:20;19.10;89.90
39675;DHT22;27790;50.840;4.386;2023-04-30T07:38:46;19.30;88.90
39675;DHT22;27790;50.840;4.386;2023-04-30T07:41:12;18.90;89.40
39675;DHT22;27790;50.840;4.386;2023-04-30T07:43:38;19.20;89.50
39675;DHT22;27790;50.840;4.386;2023-04-30T07:46:04;19.60;88.40
39675;DHT22;27790;50.840;4.386;2023-04-30T07:48:30;19.90;87.20
39675;DHT22;27790;50.840;4.386;2023-04-30T07:50:55;20.20;88.00
39675;DHT22;27790;50.840;4.386;2023-04-30T07:53:24;20.50;86.30
39675;DHT22;27790;50.840;4.386;2023-04-30T07:55:50;20.20;86.60
39675;DHT22;27790;50.840;4.386;2023-04-30T07:58:16;20.30;86.70
39675;DHT22;27790;50.840;4.386;2023-04-30T08:00:41;20.40;86.50
39675;DHT22;27790;50.840;4.386;2023-04-30T08:03:07;20.70;85.40
39675;DHT22;27790;50.840;4.386;2023-04-30T08:05:33;20.80;84.70
39675;DHT22;27790;50.840;4.386;2023-04-30T08:07:59;20.90;84.20
39675;DHT22;27790;50.840;4.386;2023-04-30T08:10:25;21.00;84.60
39675;DHT22;27790;50.840;4.386;2023-04-30T08:12:51;21.40;83.90
39675;DHT22;27790;50.840;4.386;2023-04-30T08:15:17;21.70;82.40
39675;DHT22;27790;50.840;4.386;2023-04-30T08:17:49;21.90;80.90
39675;DHT22;27790;50.840;4.386;2023-04-30T08:20:15;22.30;81.00
39675;DHT22;27790;50.840;4.386;2023-04-30T08:22:41;22.60;79.80
39675;DHT22;27790;50.840;4.386;2023-04-30T08:25:10;22.90;78.20
39675;DHT22;27790;50.840;4.386;2023-04-30T08:27:36;22.80;77.70
39675;DHT22;27790;50.840;4.386;2023-04-30T08:30:02;23.10;78.30
39675;DHT22;27790;50.840;4.386;2023-04-30T08:32:28;23.30;76.00
39675;DHT22;27790;50.840;4.386;2023-04-30T08:34:54;23.30;76.50
39675;DHT22;27790;50.840;4.386;2023-04-30T08:37:19;23.30;76.20
39675;DHT22;27790;50.840;4.386;2023-04-30T08:39:45;23.60;74.80
39675;DHT22;27790;50.840;4.386;2023-04-30T08:42:13;23.80;74.50
39675;DHT22;27790;50.840;4.386;2023-04-30T08:44:40;24.00;74.80
39675;DHT22;27790;50.840;4.386;2023-04-30T08:47:09;24.40;73.30
39675;DHT22;27790;50.840;4.386;2023-04-30T08:49:37;24.80;73.10
39675;DHT22;27790;50.840;4.386;2023-04-30T08:52:03;24.70;71.60
39675;DHT22;27790;50.840;4.386;2023-04-30T08:54:30;24.90;71.80
39675;DHT22;27790;50.840;4.386;2023-04-30T08:56:58;25.10;71.30
39675;DHT22;27790;50.840;4.386;2023-04-30T08:59:24;25.00;69.40
39675;DHT22;27790;50.840;4.386;2023-04-30T09:01:50;24.70;69.90
39675;DHT22;27790;50.840;4.386;2023-04-30T09:04:15;24.80;69.80
39675;DHT22;27790;50.840;4.386;2023-04-30T09:06:42;24.90;70.20
39675;DHT22;27790;50.840;4.386;2023-04-30T09:09:12;24.50;68.10
39675;DHT22;27790;50.840;4.386;2023-04-30T09:11:38;24.20;69.20
39675;DHT22;27790;50.840;4.386;2023-04-30T09:14:04;24.10;69.10
39675;DHT22;27790;50.840;4.386;2023-04-30T09:19:25;23.30;70.40
39675;DHT22;27790;50.840;4.386;2023-04-30T09:21:51;22.70;71.50
39675;DHT22;27790;50.840;4.386;2023-04-30T09:24:17;22.20;71.10
39675;DHT22;27790;50.840;4.386;2023-04-30T09:26:44;21.60;72.00
39675;DHT22;27790;50.840;4.386;2023-04-30T09:29:11;21.00;71.80
39675;DHT22;27790;50.840;4.386;2023-04-30T09:31:38;20.40;74.70
39675;DHT22;27790;50.840;4.386;2023-04-30T09:34:05;20.10;76.90
39675;DHT22;27790;50.840;4.386;2023-04-30T09:36:31;19.80;76.70
39675;DHT22;27790;50.840;4.386;2023-04-30T09:39:09;19.60;77.60
39675;DHT22;27790;50.840;4.386;2023-04-30T09:41:44;19.30;76.50
39675;DHT22;27790;50.840;4.386;2023-04-30T09:44:31;19.00;78.00
39675;DHT22;27790;50.840;4.386;2023-04-30T09:46:57;18.70;78.10
39675;DHT22;27790;50.840;4.386;2023-04-30T09:49:23;18.80;78.70
39675;DHT22;27790;50.840;4.386;2023-04-30T09:51:55;18.80;78.70
39675;DHT22;27790;50.840;4.386;2023-04-30T09:54:27;18.70;79.80
39675;DHT22;27790;50.840;4.386;2023-04-30T09:56:54;18.50;79.50
39675;DHT22;27790;50.840;4.386;2023-04-30T09:59:32;18.40;79.60
39675;DHT22;27790;50.840;4.386;2023-04-30T10:02:06;18.40;77.10
39675;DHT22;27790;50.840;4.386;2023-04-30T10:04:35;18.20;78.90
39675;DHT22;27790;50.840;4.386;2023-04-30T10:07:15;18.20;78.30
39675;DHT22;27790;50.840;4.386;2023-04-30T10:12:15;18.30;80.00
39675;DHT22;27790;50.840;4.386;2023-04-30T10:14:56;18.30;79.50
39675;DHT22;27790;50.840;4.386;2023-04-30T10:17:27;18.20;78.50
39675;DHT22;27790;50.840;4.386;2023-04-30T10:19:59;18.20;77.10
39675;DHT22;27790;50.840;4.386;2023-04-30T10:22:26;18.30;77.60
39675;DHT22;27790;50.840;4.386;2023-04-30T10:24:53;18.40;77.70
39675;DHT22;27790;50.840;4.386;2023-04-30T10:27:18;18.40;77.80
39675;DHT22;27790;50.840;4.386;2023-04-30T10:29:45;18.40;77.70
39675;DHT22;27790;50.840;4.386;2023-04-30T10:32:12;18.50;78.10
39675;DHT22;27790;50.840;4.386;2023-04-30T10:37:34;18.70;77.30
39675;DHT22;27790;50.840;4.386;2023-04-30T10:40:01;18.80;76.00
39675;DHT22;27790;50.840;4.386;2023-04-30T10:42:29;18.90;75.80
39675;DHT22;27790;50.840;4.386;2023-04-30T10:44:55;19.10;74.80
39675;DHT22;27790;50.840;4.386;2023-04-30T10:47:27;19.10;76.40
39675;DHT22;27790;50.840;4.386;2023-04-30T10:50:04;19.10;77.40
39675;DHT22;27790;50.840;4.386;2023-04-30T10:52:30;19.20;76.20
39675;DHT22;27790;50.840;4.386;2023-04-30T10:54:55;19.20;75.20
39675;DHT22;27790;50.840;4.386;2023-04-30T10:57:21;19.20;75.50
39675;DHT22;27790;50.840;4.386;2023-04-30T11:02:15;19.00;74.70
39675;DHT22;27790;50.840;4.386;2023-04-30T11:07:32;19.00;74.50
39675;DHT22;27790;50.840;4.386;2023-04-30T11:10:00;19.00;75.20
39675;DHT22;27790;50.840;4.386;2023-04-30T11:12:26;19.00;73.30
39675;DHT22;27790;50.840;4.386;2023-04-30T11:15:03;18.90;74.20
39675;DHT22;27790;50.840;4.386;2023-04-30T11:17:31;18.90;74.20
39675;DHT22;27790;50.840;4.386;2023-04-30T11:19:59;18.80;73.40
39675;DHT22;27790;50.840;4.386;2023-04-30T11:22:26;18.60;75.50
39675;DHT22;27790;50.840;4.386;2023-04-30T11:27:25;18.60;74.90
39675;DHT22;27790;50.840;4.386;2023-04-30T11:29:52;18.60;75.00
39675;DHT22;27790;50.840;4.386;2023-04-30T11:32:19;18.70;75.10
39675;DHT22;27790;50.840;4.386;2023-04-30T11:34:45;18.90;75.70
39675;DHT22;27790;50.840;4.386;2023-04-30T11:37:12;19.10;74.70
39675;DHT22;27790;50.840;4.386;2023-04-30T11:39:39;19.20;73.30
39675;DHT22;27790;50.840;4.386;2023-04-30T11:42:07;19.20;72.80
39675;DHT22;27790;50.840;4.386;2023-04-30T11:44:35;19.20;74.70
39675;DHT22;27790;50.840;4.386;2023-04-30T11:47:02;19.20;72.80
39675;DHT22;27790;50.840;4.386;2023-04-30T11:49:28;19.20;73.40
39675;DHT22;27790;50.840;4.386;2023-04-30T11:51:55;19.10;72.80
39675;DHT22;27790;50.840;4.386;2023-04-30T11:54:21;19.10;72.50
39675;DHT22;27790;50.840;4.386;2023-04-30T11:56:47;18.90;72.80
39675;DHT22;27790;50.840;4.386;2023-04-30T11:59:13;18.80;72.10
39675;DHT22;27790;50.840;4.386;2023-04-30T12:01:40;18.80;72.30
39675;DHT22;27790;50.840;4.386;2023-04-30T12:04:06;18.90;73.40
39675;DHT22;27790;50.840;4.386;2023-04-30T12:06:33;18.90;72.50
39675;DHT22;27790;50.840;4.386;2023-04-30T12:08:59;18.90;73.70
39675;DHT22;27790;50.840;4.386;2023-04-30T12:11:30;19.10;70.70
39675;DHT22;27790;50.840;4.386;2023-04-30T12:14:01;19.00;71.80
39675;DHT22;27790;50.840;4.386;2023-04-30T12:16:50;19.00;71.50
39675;DHT22;27790;50.840;4.386;2023-04-30T12:19:15;19.10;72.00
39675;DHT22;27790;50.840;4.386;2023-04-30T12:21:42;19.30;71.20
39675;DHT22;27790;50.840;4.386;2023-04-30T12:24:12;19.50;71.90
39675;DHT22;27790;50.840;4.386;2023-04-30T12:26:39;19.30;72.10
39675;DHT22;27790;50.840;4.386;2023-04-30T12:29:14;19.20;72.40
39675;DHT22;27790;50.840;4.386;2023-04-30T12:31:41;19.30;72.10
39675;DHT22;27790;50.840;4.386;2023-04-30T12:34:08;19.40;71.20
39675;DHT22;27790;50.840;4.386;2023-04-30T12:36:34;19.50;70.20
39675;DHT22;27790;50.840;4.386;2023-04-30T12:41:39;19.50;72.00
39675;DHT22;27790;50.840;4.386;2023-04-30T12:44:18;19.50;70.80
39675;DHT22;27790;50.840;4.386;2023-04-30T12:46:44;19.40;70.90
39675;DHT22;27790;50.840;4.386;2023-04-30T12:49:11;19.50;70.90
39675;DHT22;27790;50.840;4.386;2023-04-30T12:51:41;19.60;71.90
39675;DHT22;27790;50.840;4.386;2023-04-30T12:54:07;19.70;72.40
39675;DHT22;27790;50.840;4.386;2023-04-30T12:56:33;20.00;70.60
39675;DHT22;27790;50.840;4.386;2023-04-30T12:58:58;20.10;70.70
39675;DHT22;27790;50.840;4.386;2023-04-30T13:01:24;20.10;69.40
39675;DHT22;27790;50.840;4.386;2023-04-30T13:03:51;19.90;69.10
39675;DHT22;27790;50.840;4.386;2023-04-30T13:06:16;19.80;70.70
39675;DHT22;27790;50.840;4.386;2023-04-30T13:08:43;19.70;71.10
39675;DHT22;27790;50.840;4.386;2023-04-30T13:11:09;19.70;71.20
39675;DHT22;27790;50.840;4.386;2023-04-30T13:13:35;19.70;69.90
39675;DHT22;27790;50.840;4.386;2023-04-30T13:16:01;19.70;69.90
39675;DHT22;27790;50.840;4.386;2023-04-30T13:18:27;19.60;70.20
39675;DHT22;27790;50.840;4.386;2023-04-30T13:20:52;19.80;70.00
39675;DHT22;27790;50.840;4.386;2023-04-30T13:23:18;19.80;70.50
39675;DHT22;27790;50.840;4.386;2023-04-30T13:25:44;19.90;72.50
39675;DHT22;27790;50.840;4.386;2023-04-30T13:28:09;20.10;69.00
39675;DHT22;27790;50.840;4.386;2023-04-30T13:30:35;20.20;70.80
39675;DHT22;27790;50.840;4.386;2023-04-30T13:33:01;20.30;69.70
39675;DHT22;27790;50.840;4.386;2023-04-30T13:35:27;20.10;68.90
39675;DHT22;27790;50.840;4.386;2023-04-30T13:37:53;20.10;68.80
39675;DHT22;27790;50.840;4.386;2023-04-30T13:40:19;20.10;68.70
39675;DHT22;27790;50.840;4.386;2023-04-30T13:42:46;20.00;69.50
39675;DHT22;27790;50.840;4.386;2023-04-30T13:45:12;20.10;70.30
39675;DHT22;27790;50.840;4.386;2023-04-30T13:47:38;20.10;69.60
39675;DHT22;27790;50.840;4.386;2023-04-30T13:50:05;20.00;69.20
39675;DHT22;27790;50.840;4.386;2023-04-30T13:52:31;19.80;70.40
39675;DHT22;27790;50.840;4.386;2023-04-30T13:54:56;19.90;70.00
39675;DHT22;27790;50.840;4.386;2023-04-30T13:57:23;20.00;69.30
39675;DHT22;27790;50.840;4.386;2023-04-30T13:59:49;20.20;69.30
39675;DHT22;27790;50.840;4.386;2023-04-30T14:02:14;20.10;69.30
39675;DHT22;27790;50.840;4.386;2023-04-30T14:04:40;20.10;68.80
39675;DHT22;27790;50.840;4.386;2023-04-30T14:07:06;19.90;68.90
39675;DHT22;27790;50.840;4.386;2023-04-30T14:09:32;19.80;69.10
39675;DHT22;27790;50.840;4.386;2023-04-30T14:11:57;19.70;68.90
39675;DHT22;27790;50.840;4.386;2023-04-30T14:14:24;19.50;69.00
39675;DHT22;27790;50.840;4.386;2023-04-30T14:16:50;19.40;69.20
39675;DHT22;27790;50.840;4.386;2023-04-30T14:19:16;19.50;69.70
39675;DHT22;27790;50.840;4.386;2023-04-30T14:21:42;19.70;68.90
39675;DHT22;27790;50.840;4.386;2023-04-30T14:24:08;19.90;69.80
39675;DHT22;27790;50.840;4.386;2023-04-30T14:26:34;20.10;68.10
39675;DHT22;27790;50.840;4.386;2023-04-30T14:28:59;20.40;67.50
39675;DHT22;27790;50.840;4.386;2023-04-30T14:31:25;20.40;67.20
39675;DHT22;27790;50.840;4.386;2023-04-30T14:33:51;20.40;68.10
39675;DHT22;27790;50.840;4.386;2023-04-30T14:36:17;20.30;67.90
39675;DHT22;27790;50.840;4.386;2023-04-30T14:38:43;20.30;67.20
39675;DHT22;27790;50.840;4.386;2023-04-30T14:41:11;20.20;66.90
39675;DHT22;27790;50.840;4.386;2023-04-30T14:43:37;20.20;67.40
39675;DHT22;27790;50.840;4.386;2023-04-30T14:46:02;20.10;67.50
39675;DHT22;27790;50.840;4.386;2023-04-30T14:48:28;20.00;68.00
39675;DHT22;27790;50.840;4.386;2023-04-30T14:50:53;20.10;67.30
39675;DHT22;27790;50.840;4.386;2023-04-30T14:53:19;20.10;67.40
39675;DHT22;27790;50.840;4.386;2023-04-30T14:55:45;20.10;67.00
39675;DHT22;27790;50.840;4.386;2023-04-30T14:58:11;20.10;67.40
39675;DHT22;27790;50.840;4.386;2023-04-30T15:00:37;20.10;67.80
39675;DHT22;27790;50.840;4.386;2023-04-30T15:03:02;20.10;67.30
39675;DHT22;27790;50.840;4.386;2023-04-30T15:05:28;20.20;68.80
39675;DHT22;27790;50.840;4.386;2023-04-30T15:07:54;20.30;67.60
39675;DHT22;27790;50.840;4.386;2023-04-30T15:10:19;20.30;67.30
39675;DHT22;27790;50.840;4.386;2023-04-30T15:12:45;20.00;68.80
39675;DHT22;27790;50.840;4.386;2023-04-30T15:15:11;20.00;67.70
39675;DHT22;27790;50.840;4.386;2023-04-30T15:17:36;19.90;67.50
39675;DHT22;27790;50.840;4.386;2023-04-30T15:20:05;19.80;67.90
39675;DHT22;27790;50.840;4.386;2023-04-30T15:22:32;19.90;67.90
39675;DHT22;27790;50.840;4.386;2023-04-30T15:24:58;20.10;67.60
39675;DHT22;27790;50.840;4.386;2023-04-30T15:27:26;20.10;68.00
39675;DHT22;27790;50.840;4.386;2023-04-30T15:29:52;20.10;68.70
39675;DHT22;27790;50.840;4.386;2023-04-30T15:32:18;20.10;68.30
39675;DHT22;27790;50.840;4.386;2023-04-30T15:34:44;20.10;67.80
39675;DHT22;27790;50.840;4.386;2023-04-30T15:37:09;20.00;68.00
39675;DHT22;27790;50.840;4.386;2023-04-30T15:39:35;20.00;68.10
39675;DHT22;27790;50.840;4.386;2023-04-30T15:42:01;19.90;67.70
39675;DHT22;27790;50.840;4.386;2023-04-30T15:44:27;20.00;67.90
39675;DHT22;27790;50.840;4.386;2023-04-30T15:46:53;19.90;68.60
39675;DHT22;27790;50.840;4.386;2023-04-30T15:49:19;20.00;68.70
39675;DHT22;27790;50.840;4.386;2023-04-30T15:51:47;20.00;67.90
39675;DHT22;27790;50.840;4.386;2023-04-30T15:54:13;20.00;67.90
39675;DHT22;27790;50.840;4.386;2023-04-30T15:56:39;19.80;68.10
39675;DHT22;27790;50.840;4.386;2023-04-30T15:59:05;19.70;69.50
39675;DHT22;27790;50.840;4.386;2023-04-30T16:01:31;19.70;69.40
39675;DHT22;27790;50.840;4.386;2023-04-30T16:03:57;19.70;69.70
39675;DHT22;27790;50.840;4.386;2023-04-30T16:06:24;19.90;71.00